createdAt,value
2023-02-23T00:01:21.872Z,5.68
2023-02-23T00:06:28.220Z,4.57
2023-02-23T00:11:29.861Z,5.70
2023-02-23T00:16:31.584Z,5.05
2023-02-23T00:21:35.053Z,7.88
2023-02-23T00:26:42.365Z,5.22
2023-02-23T00:31:48.143Z,5.30
2023-02-23T00:36:55.371Z,4.72
2023-02-23T00:42:02.730Z,5.75
2023-02-23T00:47:04.431Z,5.28
2023-02-23T00:52:06.021Z,5.72
2023-02-23T00:57:08.049Z,5.90
2023-02-23T01:02:09.634Z,5.70
2023-02-23T01:07:14.107Z,6.07
2023-02-23T01:12:16.896Z,5.18
2023-02-23T01:17:18.978Z,5.90
2023-02-23T01:22:20.534Z,8.23
2023-02-23T01:27:22.159Z,6.25
2023-02-23T01:32:26.020Z,5.43
2023-02-23T01:37:27.686Z,5.80
2023-02-23T01:42:29.350Z,5.80
2023-02-23T01:47:31.015Z,6.22
2023-02-23T01:52:33.955Z,5.05
2023-02-23T01:57:36.279Z,5.35
2023-02-23T02:02:37.872Z,6.22
2023-02-23T02:07:45.809Z,5.22
2023-02-23T02:12:56.880Z,4.80
2023-02-23T02:18:18.591Z,5.10
2023-02-23T02:23:53.376Z,5.47
2023-02-23T02:29:18.440Z,5.60
2023-02-23T02:35:10.558Z,7.03
2023-02-23T02:40:24.981Z,6.45
2023-02-23T02:45:54.507Z,7.38
2023-02-23T02:51:05.185Z,6.00
2023-02-23T02:56:08.682Z,5.50
2023-02-23T03:01:35.354Z,5.20
2023-02-23T03:07:14.914Z,5.78
2023-02-23T03:12:50.226Z,5.40
2023-02-23T03:18:27.324Z,5.95
2023-02-23T03:23:57.657Z,5.55
2023-02-23T03:30:06.566Z,5.18
2023-02-23T03:35:42.401Z,5.50
2023-02-23T03:41:06.702Z,6.25
2023-02-23T03:46:31.189Z,5.72
2023-02-23T03:51:56.063Z,7.45
2023-02-23T03:57:20.502Z,6.05
2023-02-23T04:02:42.744Z,6.18
2023-02-23T04:08:06.213Z,6.47
2023-02-23T04:13:20.404Z,7.13
2023-02-23T04:18:25.798Z,7.47
2023-02-23T04:23:28.018Z,7.72
2023-02-23T04:28:29.701Z,8.50
2023-02-23T04:33:31.392Z,8.15
2023-02-23T04:38:32.973Z,8.90
2023-02-23T04:43:34.519Z,9.18
2023-02-23T04:48:36.140Z,8.93
2023-02-23T04:53:41.475Z,10.70
2023-02-23T04:58:43.242Z,9.18
2023-02-23T05:03:44.812Z,7.50
2023-02-23T05:08:46.445Z,7.20
2023-02-23T05:13:47.974Z,7.10
2023-02-23T05:18:49.734Z,6.75
2023-02-23T05:23:51.469Z,6.35
2023-02-23T05:28:53.129Z,7.82
2023-02-23T05:33:54.700Z,9.75
2023-02-23T05:38:56.223Z,10.07
2023-02-23T05:43:57.736Z,12.35
2023-02-23T05:49:01.305Z,10.45
2023-02-23T05:54:02.838Z,10.23
2023-02-23T05:59:04.896Z,11.60
2023-02-23T06:04:06.544Z,11.43
2023-02-23T06:09:08.133Z,12.02
2023-02-23T06:14:09.709Z,10.35
2023-02-23T06:19:11.742Z,8.43
2023-02-23T06:24:13.371Z,8.75
2023-02-23T06:29:15.697Z,7.38
2023-02-23T06:34:17.832Z,6.15
2023-02-23T06:39:19.418Z,14.90
2023-02-23T06:44:22.160Z,13.52
2023-02-23T06:49:23.736Z,16.23
2023-02-23T06:54:26.342Z,29.60
2023-02-23T06:59:27.968Z,23.98
2023-02-23T07:04:29.522Z,21.55
2023-02-23T07:09:33.352Z,21.60
2023-02-23T07:14:35.318Z,23.45
2023-02-23T07:19:36.910Z,23.20
2023-02-23T07:24:38.827Z,25.20
2023-02-23T07:29:40.387Z,25.63
2023-02-23T07:34:42.108Z,28.80
2023-02-23T07:39:44.119Z,27.95
2023-02-23T07:44:45.681Z,29.60
2023-02-23T07:49:47.209Z,28.20
2023-02-23T07:54:48.729Z,31.83
2023-02-23T07:59:50.610Z,33.35
2023-02-23T08:04:54.261Z,28.23
2023-02-23T08:09:55.851Z,29.65
2023-02-23T08:15:00.220Z,29.50
2023-02-23T08:20:01.836Z,26.52
2023-02-23T08:25:07.157Z,31.38
2023-02-23T08:30:09.874Z,34.30
2023-02-23T08:35:12.004Z,31.17
2023-02-23T08:40:18.306Z,26.23
2023-02-23T08:45:20.617Z,23.23
2023-02-23T08:50:24.765Z,23.50
2023-02-23T08:55:27.448Z,32.72
2023-02-23T09:00:29.075Z,34.33
2023-02-23T09:05:31.697Z,35.88
2023-02-23T09:10:33.567Z,37.53
2023-02-23T09:15:35.173Z,34.63
2023-02-23T09:20:36.709Z,35.17
2023-02-23T09:25:45.673Z,36.25
2023-02-23T09:30:48.297Z,31.80
2023-02-23T09:35:49.919Z,32.58
2023-02-23T09:40:53.955Z,31.17
2023-02-23T09:46:15.174Z,37.78
2023-02-23T09:51:21.212Z,32.65
2023-02-23T09:56:43.264Z,37.38
2023-02-23T10:01:47.991Z,32.13
2023-02-23T10:07:09.272Z,33.22
2023-02-23T10:12:26.408Z,39.60
2023-02-23T10:17:27.874Z,42.95
2023-02-23T10:22:32.519Z,43.33
2023-02-23T10:27:42.019Z,38.88
2023-02-23T10:33:21.298Z,39.75
2023-02-23T10:38:22.863Z,39.47
2023-02-23T10:43:24.638Z,39.72
2023-02-23T10:48:34.136Z,43.88
2023-02-23T10:53:37.548Z,41.67
2023-02-23T10:58:59.386Z,39.88
2023-02-23T11:04:16.731Z,38.15
2023-02-23T11:09:41.326Z,46.50
2023-02-23T11:14:46.875Z,40.15
2023-02-23T11:19:48.492Z,43.97
2023-02-23T11:24:52.273Z,41.67
2023-02-23T11:29:59.682Z,42.63
2023-02-23T11:35:21.595Z,45.22
2023-02-23T11:40:29.445Z,39.13
2023-02-23T11:45:34.496Z,43.25
2023-02-23T11:50:36.943Z,34.33
2023-02-23T11:55:39.486Z,39.25
2023-02-23T12:00:41.012Z,35.95
2023-02-23T12:05:53.255Z,33.42
2023-02-23T12:10:59.981Z,32.38
2023-02-23T12:16:09.016Z,27.52
2023-02-23T12:21:18.368Z,29.23
2023-02-23T12:26:22.671Z,25.00
2023-02-23T12:31:46.238Z,24.75
2023-02-23T12:37:14.453Z,17.17
2023-02-23T12:42:37.890Z,20.23
2023-02-23T12:47:46.844Z,13.95
2023-02-23T12:52:57.600Z,13.88
2023-02-23T12:58:29.068Z,15.15
2023-02-23T13:03:36.547Z,13.00
2023-02-23T13:08:58.531Z,12.70
2023-02-23T13:14:39.784Z,8.13
2023-02-23T13:19:56.236Z,11.43
2023-02-23T13:25:05.172Z,12.60
2023-02-23T13:30:11.187Z,25.33
2023-02-23T13:35:21.675Z,22.77
2023-02-23T13:40:33.911Z,21.00
2023-02-23T13:45:55.463Z,21.85
2023-02-23T13:51:31.284Z,21.52
2023-02-23T13:56:42.078Z,16.42
2023-02-23T14:01:48.840Z,19.85
2023-02-23T14:07:24.306Z,15.10
2023-02-23T14:12:38.243Z,15.63
2023-02-23T14:17:41.229Z,13.27
2023-02-23T14:23:24.989Z,13.73
2023-02-23T14:28:30.690Z,15.13
2023-02-23T14:33:45.221Z,14.05
2023-02-23T14:38:50.455Z,18.00
2023-02-23T14:44:30.898Z,12.52
2023-02-23T14:49:40.800Z,16.83
2023-02-23T14:54:42.379Z,16.10
2023-02-23T14:59:44.940Z,16.65
2023-02-23T15:04:46.947Z,17.17
2023-02-23T15:09:48.559Z,19.08
2023-02-23T15:14:50.353Z,16.45
2023-02-23T15:20:14.291Z,17.75
2023-02-23T15:25:20.397Z,19.48
2023-02-23T15:30:25.024Z,17.95
2023-02-23T15:35:27.242Z,17.58
2023-02-23T15:40:30.032Z,16.23
2023-02-23T15:45:43.538Z,14.30
2023-02-23T15:50:50.686Z,12.18
2023-02-23T15:55:55.692Z,12.25
2023-02-23T16:01:09.639Z,12.95
2023-02-23T16:06:24.931Z,11.63
2023-02-23T16:11:33.005Z,12.10
2023-02-23T16:16:35.464Z,15.27
2023-02-23T16:21:37.755Z,12.90
2023-02-23T16:26:46.704Z,11.30
2023-02-23T16:31:55.182Z,11.90
2023-02-23T16:37:00.057Z,12.15
2023-02-23T16:42:01.724Z,12.18
2023-02-23T16:47:03.249Z,15.27
2023-02-23T16:52:15.746Z,14.90
2023-02-23T16:57:32.314Z,15.27
2023-02-23T17:02:36.233Z,12.63
2023-02-23T17:07:37.764Z,10.02
2023-02-23T17:12:39.335Z,12.40
2023-02-23T17:17:40.969Z,12.85
2023-02-23T17:22:44.919Z,14.90
2023-02-23T17:27:46.688Z,16.60
2023-02-23T17:32:49.437Z,13.73
2023-02-23T17:37:51.326Z,15.70
2023-02-23T17:42:53.471Z,13.45
2023-02-23T17:47:58.301Z,16.83
2023-02-23T17:52:59.926Z,15.77
2023-02-23T17:58:01.555Z,16.80
2023-02-23T18:03:03.306Z,20.60
2023-02-23T18:08:04.987Z,15.48
2023-02-23T18:13:06.662Z,19.08
2023-02-23T18:18:08.202Z,20.15
2023-02-23T18:23:09.805Z,20.15
2023-02-23T18:28:12.056Z,18.67
2023-02-23T18:33:14.299Z,19.27
2023-02-23T18:38:17.416Z,17.67
2023-02-23T18:43:19.069Z,19.17
2023-02-23T18:48:20.654Z,19.30
2023-02-23T18:53:22.362Z,16.83
2023-02-23T18:58:26.401Z,15.70
2023-02-23T19:03:29.765Z,16.55
2023-02-23T19:08:31.346Z,15.93
2023-02-23T19:13:32.913Z,20.70
2023-02-23T19:18:35.709Z,21.35
2023-02-23T19:23:37.763Z,18.67
2023-02-23T19:28:39.578Z,16.95
2023-02-23T19:33:41.859Z,19.90
2023-02-23T19:38:43.548Z,19.70
2023-02-23T19:43:45.997Z,20.20
2023-02-23T19:48:51.997Z,18.60
2023-02-23T19:53:57.763Z,19.30
2023-02-23T19:59:01.279Z,22.88
2023-02-23T20:04:06.670Z,19.13
2023-02-23T20:09:09.554Z,22.83
2023-02-23T20:14:12.370Z,20.85
2023-02-23T20:19:14.068Z,21.58
2023-02-23T20:24:16.185Z,19.17
2023-02-23T20:29:19.195Z,18.10
2023-02-23T20:34:24.498Z,19.23
2023-02-23T20:39:27.129Z,20.83
2023-02-23T20:44:30.243Z,18.10
2023-02-23T20:49:31.886Z,18.92
2023-02-23T20:54:33.466Z,18.85
2023-02-23T20:59:39.078Z,21.90
2023-02-23T21:04:43.429Z,20.08
2023-02-23T21:09:45.523Z,20.08
2023-02-23T21:14:50.098Z,20.52
2023-02-23T21:19:51.897Z,20.20
2023-02-23T21:24:53.620Z,19.90
2023-02-23T21:29:55.852Z,19.95
2023-02-23T21:34:58.517Z,22.50
2023-02-23T21:40:00.058Z,20.52
2023-02-23T21:45:01.739Z,20.30
2023-02-23T21:50:04.348Z,20.45
2023-02-23T21:55:13.250Z,18.60
2023-02-23T22:00:21.727Z,17.63
2023-02-23T22:05:23.409Z,26.48
2023-02-23T22:10:24.986Z,22.95
2023-02-23T22:15:29.598Z,20.13
2023-02-23T22:20:33.580Z,22.15
2023-02-23T22:25:35.138Z,20.83
2023-02-23T22:30:36.680Z,22.45
2023-02-23T22:35:41.333Z,23.33
2023-02-23T22:40:42.917Z,25.67
2023-02-23T22:45:44.585Z,27.55
2023-02-23T22:50:46.142Z,26.65
2023-02-23T22:55:54.209Z,25.45
2023-02-23T23:01:06.606Z,25.23
2023-02-23T23:06:12.492Z,51.40
2023-02-23T23:11:20.208Z,34.35
2023-02-23T23:16:32.074Z,25.10
2023-02-23T23:21:35.574Z,24.15
2023-02-23T23:26:41.745Z,22.77
2023-02-23T23:31:46.575Z,22.90
2023-02-23T23:36:49.376Z,23.60
2023-02-23T23:41:51.209Z,24.45
2023-02-23T23:46:52.874Z,20.60
2023-02-23T23:51:56.744Z,21.27
2023-02-23T23:57:01.346Z,23.20
